Time;durP1;ratioP1;P1;durP2;ratioP2;P2;SDS_P1;SDS_P2;PMS_P1;PMS_P2;Temp;Humidity;BMP_temperature;BMP_pressure;BME280_temperature;BME280_humidity;BME280_pressure;Samples;Min_cycle;Max_cycle;Signal;HPM_P1;HPM_P2
2021/12/20 00:01:33;;;;;;;;;;;21.10;41.40;;;;;;5134040;28;20011;-59
2021/12/20 00:03:59;;;;;;;;;;;21.10;41.40;;;;;;5134292;27;20335;-60
2021/12/20 00:06:24;;;;;;;;;;;21.10;41.40;;;;;;5134516;28;20016;-59
2021/12/20 00:08:50;;;;;;;;;;;21.10;41.40;;;;;;5134129;28;20370;-59
2021/12/20 00:11:15;;;;;;;;;;;21.10;41.40;;;;;;5134061;28;19942;-59
2021/12/20 00:13:40;;;;;;;;;;;21.10;41.40;;;;;;5134067;27;19912;-60
2021/12/20 00:16:06;;;;;;;;;;;21.10;41.40;;;;;;5133901;28;19915;-59
2021/12/20 00:18:31;;;;;;;;;;;21.10;41.40;;;;;;5115803;28;19909;-60
2021/12/20 00:20:57;;;;;;;;;;;21.00;41.40;;;;;;5134186;28;19916;-60
2021/12/20 00:23:22;;;;;;;;;;;21.00;41.40;;;;;;5134171;28;20384;-60
2021/12/20 00:25:48;;;;;;;;;;;21.10;41.40;;;;;;5115660;28;19908;-60
2021/12/20 00:28:17;;;;;;;;;;;21.00;41.40;;;;;;5134014;28;19908;-60
2021/12/20 00:30:43;;;;;;;;;;;21.10;41.40;;;;;;5133992;28;19908;-60
2021/12/20 00:33:09;;;;;;;;;;;21.00;41.40;;;;;;5115493;28;19986;-60
2021/12/20 00:35:34;;;;;;;;;;;21.00;41.40;;;;;;5133809;28;19914;-60
2021/12/20 00:40:44;;;;;;;;;;;21.00;41.40;;;;;;5133818;28;19938;-60
2021/12/20 00:43:09;;;;;;;;;;;21.00;41.40;;;;;;5133841;28;20286;-60
2021/12/20 00:45:36;;;;;;;;;;;21.00;41.30;;;;;;5115392;28;20280;-60
2021/12/20 00:48:02;;;;;;;;;;;21.00;41.40;;;;;;5133865;28;20174;-60
2021/12/20 00:50:28;;;;;;;;;;;21.00;41.30;;;;;;5133863;28;19907;-60
2021/12/20 00:52:53;;;;;;;;;;;21.00;41.30;;;;;;5136170;27;19915;-60
2021/12/20 00:55:20;;;;;;;;;;;21.00;41.30;;;;;;5137694;27;19946;-60
2021/12/20 00:57:46;;;;;;;;;;;21.00;41.30;;;;;;5137255;27;20029;-60
2021/12/20 01:00:13;;;;;;;;;;;21.00;41.30;;;;;;5137227;27;19919;-59
2021/12/20 01:02:39;;;;;;;;;;;21.00;41.30;;;;;;5118767;27;19935;-60
2021/12/20 01:05:04;;;;;;;;;;;21.00;41.30;;;;;;5137357;27;20358;-60
2021/12/20 01:07:30;;;;;;;;;;;21.00;41.30;;;;;;5137243;27;19957;-60
2021/12/20 01:10:02;;;;;;;;;;;21.00;41.20;;;;;;5137456;27;19908;-60
2021/12/20 01:12:33;;;;;;;;;;;21.00;41.30;;;;;;5137336;27;20003;-60
2021/12/20 01:15:00;;;;;;;;;;;20.90;41.20;;;;;;5137009;27;19953;-60
2021/12/20 01:17:26;;;;;;;;;;;21.00;41.20;;;;;;5118675;27;19907;-60
2021/12/20 01:19:52;;;;;;;;;;;20.90;41.20;;;;;;5137210;27;19907;-60
2021/12/20 01:22:17;;;;;;;;;;;20.90;41.20;;;;;;5136778;27;19937;-60
2021/12/20 01:24:42;;;;;;;;;;;20.90;41.10;;;;;;5136897;27;20358;-60
2021/12/20 01:27:08;;;;;;;;;;;20.90;41.10;;;;;;5136861;27;19953;-60
2021/12/20 01:29:34;;;;;;;;;;;20.90;41.10;;;;;;5136887;27;19908;-60
2021/12/20 01:31:59;;;;;;;;;;;20.90;41.10;;;;;;5136769;27;19907;-60
2021/12/20 01:34:24;;;;;;;;;;;20.90;41.10;;;;;;5136659;27;19934;-60
2021/12/20 01:36:50;;;;;;;;;;;20.90;41.00;;;;;;5136688;27;19908;-60
2021/12/20 01:39:16;;;;;;;;;;;20.90;41.00;;;;;;5118199;27;19908;-60
2021/12/20 01:41:42;;;;;;;;;;;20.90;41.00;;;;;;5136667;27;19916;-60
2021/12/20 01:44:08;;;;;;;;;;;20.90;41.00;;;;;;5136824;27;19908;-60
2021/12/20 01:46:33;;;;;;;;;;;20.90;41.00;;;;;;5136432;27;19918;-60
2021/12/20 01:49:00;;;;;;;;;;;20.90;40.90;;;;;;5136390;27;19911;-60
2021/12/20 01:51:46;;;;;;;;;;;20.90;40.90;;;;;;5136344;27;19990;-60
2021/12/20 01:54:12;;;;;;;;;;;20.90;41.00;;;;;;5117904;27;19908;-60
2021/12/20 01:56:41;;;;;;;;;;;20.90;41.00;;;;;;5136156;27;19914;-60
2021/12/20 01:59:07;;;;;;;;;;;20.90;41.00;;;;;;5136187;27;20565;-60
2021/12/20 02:01:33;;;;;;;;;;;20.90;41.00;;;;;;5136151;27;20010;-60
2021/12/20 02:04:01;;;;;;;;;;;20.90;40.90;;;;;;5135149;27;20454;-60
2021/12/20 02:06:32;;;;;;;;;;;20.80;40.90;;;;;;5136009;27;19907;-60
2021/12/20 02:08:59;;;;;;;;;;;20.80;40.90;;;;;;5135986;27;19914;-59
2021/12/20 02:11:25;;;;;;;;;;;20.80;40.90;;;;;;5135974;27;19929;-60
2021/12/20 02:13:50;;;;;;;;;;;20.80;40.90;;;;;;5135837;27;20402;-60
2021/12/20 02:16:17;;;;;;;;;;;20.80;40.90;;;;;;5136056;27;19938;-60
2021/12/20 02:18:42;;;;;;;;;;;20.80;40.90;;;;;;5135827;27;19915;-60
2021/12/20 02:21:08;;;;;;;;;;;20.80;40.90;;;;;;5135632;27;19985;-60
2021/12/20 02:23:33;;;;;;;;;;;20.80;40.90;;;;;;5135682;27;19908;-60
2021/12/20 02:26:00;;;;;;;;;;;20.80;40.90;;;;;;5135611;27;20350;-60
2021/12/20 02:28:25;;;;;;;;;;;20.80;40.90;;;;;;5135566;27;19911;-59
2021/12/20 02:36:54;;;;;;;;;;;20.80;40.90;;;;;;5135835;27;20369;-59
2021/12/20 02:39:05;;;;;;;;;;;20.80;40.90;;;;;;5135569;27;19918;-59
2021/12/20 02:41:32;;;;;;;;;;;20.80;41.00;;;;;;5135169;27;19916;-60
2021/12/20 02:44:04;;;;;;;;;;;20.80;40.90;;;;;;5135295;27;19914;-59
2021/12/20 02:49:05;;;;;;;;;;;20.80;40.90;;;;;;5135535;27;20255;-58
2021/12/20 02:51:30;;;;;;;;;;;20.80;40.90;;;;;;5135174;27;19907;-59
2021/12/20 02:53:57;;;;;;;;;;;20.80;40.90;;;;;;5135076;27;20255;-60
2021/12/20 02:56:23;;;;;;;;;;;20.70;40.90;;;;;;5135277;27;19907;-59
2021/12/20 02:58:48;;;;;;;;;;;20.80;40.80;;;;;;5135358;27;19953;-60
2021/12/20 03:01:14;;;;;;;;;;;20.70;40.90;;;;;;5134710;27;19963;-59
2021/12/20 03:03:40;;;;;;;;;;;20.70;40.90;;;;;;5135061;27;19908;-59
2021/12/20 03:06:09;;;;;;;;;;;20.70;40.80;;;;;;5135014;27;19916;-59
2021/12/20 03:08:34;;;;;;;;;;;20.70;40.80;;;;;;5134969;27;20193;-60
2021/12/20 03:11:01;;;;;;;;;;;20.70;40.90;;;;;;5116251;27;22319;-59
2021/12/20 03:13:27;;;;;;;;;;;20.70;40.80;;;;;;5134997;27;19907;-59
2021/12/20 03:15:52;;;;;;;;;;;20.70;40.90;;;;;;5134621;27;19907;-59
2021/12/20 03:18:18;;;;;;;;;;;20.70;40.80;;;;;;5135013;27;19907;-60
2021/12/20 03:20:43;;;;;;;;;;;20.70;40.80;;;;;;5134549;27;20018;-60
2021/12/20 03:23:08;;;;;;;;;;;20.70;40.80;;;;;;5134617;27;19949;-60
2021/12/20 03:25:34;;;;;;;;;;;20.70;40.80;;;;;;5134656;27;19911;-59
2021/12/20 03:27:59;;;;;;;;;;;20.70;40.70;;;;;;5134606;27;19950;-60
2021/12/20 03:30:26;;;;;;;;;;;20.70;40.70;;;;;;5134465;27;19912;-59
2021/12/20 03:32:51;;;;;;;;;;;20.70;40.70;;;;;;5134544;27;20005;-59
2021/12/20 03:35:16;;;;;;;;;;;20.70;40.80;;;;;;5116149;27;20015;-59
2021/12/20 03:37:42;;;;;;;;;;;20.70;40.70;;;;;;5134471;27;19912;-59
2021/12/20 03:40:08;;;;;;;;;;;20.70;40.70;;;;;;5134353;28;19908;-59
2021/12/20 03:42:35;;;;;;;;;;;20.70;40.70;;;;;;5134455;28;20370;-59
2021/12/20 03:45:01;;;;;;;;;;;20.70;40.70;;;;;;5134452;28;19912;-59
2021/12/20 03:47:26;;;;;;;;;;;20.60;40.70;;;;;;5134374;28;19952;-59
2021/12/20 03:49:52;;;;;;;;;;;20.60;40.70;;;;;;5134300;28;20010;-60
2021/12/20 03:52:17;;;;;;;;;;;20.60;40.70;;;;;;5134444;28;19938;-59
2021/12/20 03:54:42;;;;;;;;;;;20.60;40.70;;;;;;5134291;27;19968;-59
2021/12/20 03:57:08;;;;;;;;;;;20.60;40.70;;;;;;5134554;28;19951;-60
2021/12/20 03:59:34;;;;;;;;;;;20.60;40.70;;;;;;5134184;28;19922;-59
2021/12/20 04:02:00;;;;;;;;;;;20.60;40.70;;;;;;5134146;28;19923;-59
2021/12/20 04:04:25;;;;;;;;;;;20.60;40.60;;;;;;5134333;28;20006;-59
2021/12/20 04:06:50;;;;;;;;;;;20.60;40.70;;;;;;5134321;28;20355;-59
2021/12/20 04:09:16;;;;;;;;;;;20.60;40.70;;;;;;5134164;28;20298;-59
2021/12/20 04:11:41;;;;;;;;;;;20.60;40.70;;;;;;5134176;28;19908;-59
2021/12/20 04:14:07;;;;;;;;;;;20.60;40.60;;;;;;5134321;28;19935;-59
2021/12/20 04:16:33;;;;;;;;;;;20.60;40.70;;;;;;5134139;28;19908;-59
2021/12/20 04:18:58;;;;;;;;;;;20.60;40.60;;;;;;5134147;28;19958;-59
2021/12/20 04:21:24;;;;;;;;;;;20.60;40.70;;;;;;5115463;28;19961;-59
2021/12/20 04:23:49;;;;;;;;;;;20.60;40.70;;;;;;5134243;28;20371;-62
2021/12/20 04:26:14;;;;;;;;;;;20.60;40.60;;;;;;5134327;27;20323;-60
2021/12/20 04:28:40;;;;;;;;;;;20.50;40.60;;;;;;5119309;27;19934;-59
2021/12/20 04:31:06;;;;;;;;;;;20.50;40.70;;;;;;5137877;27;19907;-59
2021/12/20 04:33:31;;;;;;;;;;;20.60;40.70;;;;;;5119625;27;19908;-60
2021/12/20 04:35:57;;;;;;;;;;;20.50;40.60;;;;;;5137855;27;19912;-61
2021/12/20 04:38:27;;;;;;;;;;;20.50;40.60;;;;;;5137821;27;19914;-60
2021/12/20 04:40:53;;;;;;;;;;;20.50;40.50;;;;;;5119238;27;19915;-60
2021/12/20 04:43:18;;;;;;;;;;;20.50;40.60;;;;;;5137560;27;19949;-60
2021/12/20 04:45:44;;;;;;;;;;;20.50;40.50;;;;;;5137790;27;19999;-61
2021/12/20 04:48:10;;;;;;;;;;;20.50;40.60;;;;;;5137540;27;19915;-61
2021/12/20 04:50:35;;;;;;;;;;;20.50;40.50;;;;;;5137536;27;19912;-61
2021/12/20 04:53:02;;;;;;;;;;;20.50;40.60;;;;;;5137485;27;19907;-60
2021/12/20 04:55:28;;;;;;;;;;;20.50;40.50;;;;;;5137398;27;20374;-61
2021/12/20 04:57:54;;;;;;;;;;;20.50;40.60;;;;;;5118924;27;19937;-60
2021/12/20 05:00:30;;;;;;;;;;;20.50;40.50;;;;;;5137058;27;19923;-60
2021/12/20 05:02:56;;;;;;;;;;;20.50;40.50;;;;;;5137345;27;19922;-60
2021/12/20 05:05:21;;;;;;;;;;;20.50;40.50;;;;;;5137197;27;19907;-60
2021/12/20 05:07:48;;;;;;;;;;;20.50;40.50;;;;;;5137139;27;20019;-60
2021/12/20 05:10:24;;;;;;;;;;;20.50;40.40;;;;;;5137143;27;19994;-60
2021/12/20 05:12:50;;;;;;;;;;;20.50;40.40;;;;;;5137335;27;19909;-61
2021/12/20 05:15:16;;;;;;;;;;;20.50;40.40;;;;;;5137135;27;20369;-60
2021/12/20 05:17:41;;;;;;;;;;;20.50;40.40;;;;;;5137115;27;19908;-59
2021/12/20 05:20:07;;;;;;;;;;;20.50;40.40;;;;;;5136829;27;19972;-60
2021/12/20 05:22:32;;;;;;;;;;;20.50;40.30;;;;;;5136890;27;19911;-59
2021/12/20 05:24:58;;;;;;;;;;;20.50;40.30;;;;;;5136806;27;19913;-60
2021/12/20 05:27:23;;;;;;;;;;;20.60;40.20;;;;;;5136989;27;19908;-60
2021/12/20 05:29:50;;;;;;;;;;;20.60;40.30;;;;;;5136709;27;19910;-60
2021/12/20 05:32:15;;;;;;;;;;;20.60;40.30;;;;;;5136693;27;20366;-59
2021/12/20 05:34:41;;;;;;;;;;;20.60;40.10;;;;;;5118429;27;19915;-59
2021/12/20 05:37:06;;;;;;;;;;;20.70;40.20;;;;;;5137163;27;19908;-59
2021/12/20 05:39:32;;;;;;;;;;;20.70;40.10;;;;;;5135300;27;19914;-59
2021/12/20 05:41:57;;;;;;;;;;;20.70;40.10;;;;;;5136484;27;20282;-59
2021/12/20 05:44:23;;;;;;;;;;;20.70;40.00;;;;;;5136795;27;20412;-59
2021/12/20 05:46:48;;;;;;;;;;;20.80;40.00;;;;;;5136316;27;19907;-59
2021/12/20 05:49:14;;;;;;;;;;;20.80;40.00;;;;;;5136433;27;19958;-59
2021/12/20 05:51:39;;;;;;;;;;;20.80;40.00;;;;;;5136287;27;20010;-59
2021/12/20 05:54:05;;;;;;;;;;;20.80;40.00;;;;;;5136385;27;19911;-61
2021/12/20 05:56:30;;;;;;;;;;;20.80;40.00;;;;;;5136590;27;20343;-59
2021/12/20 05:58:56;;;;;;;;;;;20.80;39.90;;;;;;5136313;27;19907;-59
2021/12/20 06:01:22;;;;;;;;;;;20.90;40.00;;;;;;5135926;27;19929;-59
2021/12/20 06:03:47;;;;;;;;;;;20.80;39.90;;;;;;5136075;27;20354;-59
2021/12/20 06:06:14;;;;;;;;;;;20.90;40.00;;;;;;5136115;27;19907;-59
2021/12/20 06:08:39;;;;;;;;;;;20.80;39.90;;;;;;5117574;27;19957;-59
2021/12/20 06:11:05;;;;;;;;;;;20.90;39.90;;;;;;5136029;27;19911;-59
2021/12/20 06:13:30;;;;;;;;;;;20.90;39.90;;;;;;5100620;27;19961;-59
2021/12/20 06:15:56;;;;;;;;;;;20.90;39.90;;;;;;5135840;27;19911;-59
2021/12/20 06:18:21;;;;;;;;;;;20.90;39.90;;;;;;5117332;27;20003;-59
2021/12/20 06:20:47;;;;;;;;;;;20.90;39.80;;;;;;5135831;27;19916;-60
2021/12/20 06:23:12;;;;;;;;;;;21.00;39.80;;;;;;5117296;27;19908;-59
2021/12/20 06:25:38;;;;;;;;;;;20.90;39.90;;;;;;5135866;27;19911;-59
2021/12/20 06:28:03;;;;;;;;;;;20.90;39.90;;;;;;5135700;27;19908;-59
2021/12/20 06:30:29;;;;;;;;;;;20.90;39.80;;;;;;5135553;27;19911;-60
2021/12/20 06:32:54;;;;;;;;;;;20.90;39.80;;;;;;5135913;27;20100;-60
2021/12/20 06:35:20;;;;;;;;;;;20.90;39.90;;;;;;5135489;27;19914;-60
2021/12/20 06:37:48;;;;;;;;;;;21.00;39.80;;;;;;5135464;27;19951;-60
2021/12/20 06:40:14;;;;;;;;;;;20.90;39.90;;;;;;5135331;27;19915;-60
2021/12/20 06:42:40;;;;;;;;;;;20.90;39.80;;;;;;5135532;27;19908;-58
2021/12/20 06:45:06;;;;;;;;;;;20.90;39.90;;;;;;5135233;27;19911;-60
2021/12/20 06:47:32;;;;;;;;;;;21.00;39.80;;;;;;5135419;27;19914;-60
2021/12/20 06:49:57;;;;;;;;;;;21.00;39.90;;;;;;5145008;27;19998;-60
2021/12/20 06:52:23;;;;;;;;;;;21.00;39.70;;;;;;5128841;27;19945;-62
2021/12/20 06:54:50;;;;;;;;;;;21.00;40.00;;;;;;5134464;27;19908;-66
2021/12/20 06:57:15;;;;;;;;;;;21.00;39.90;;;;;;5142620;27;19915;-65
2021/12/20 06:59:41;;;;;;;;;;;21.00;39.70;;;;;;5147738;27;19924;-66
2021/12/20 07:02:06;;;;;;;;;;;21.00;39.80;;;;;;5147952;27;19926;-66
2021/12/20 07:04:32;;;;;;;;;;;21.00;39.70;;;;;;5117882;27;19936;-66
2021/12/20 07:06:57;;;;;;;;;;;21.00;39.70;;;;;;5136521;27;20259;-67
2021/12/20 07:09:22;;;;;;;;;;;21.00;39.80;;;;;;5118416;27;20278;-67
2021/12/20 07:11:48;;;;;;;;;;;21.00;39.70;;;;;;5134573;27;19915;-66
2021/12/20 07:14:13;;;;;;;;;;;21.00;39.70;;;;;;5133470;27;19915;-66
2021/12/20 07:16:40;;;;;;;;;;;21.00;39.60;;;;;;5133200;27;19912;-65
2021/12/20 07:19:06;;;;;;;;;;;21.00;39.90;;;;;;5132663;27;20462;-63
2021/12/20 07:21:31;;;;;;;;;;;21.00;39.90;;;;;;5141364;27;19966;-65
2021/12/20 07:23:56;;;;;;;;;;;21.30;39.70;;;;;;5141052;27;19918;-61
2021/12/20 07:26:22;;;;;;;;;;;21.20;39.80;;;;;;5150455;27;19995;-62
2021/12/20 07:28:48;;;;;;;;;;;21.10;39.80;;;;;;5135901;27;19964;-61
2021/12/20 07:31:13;;;;;;;;;;;21.10;39.90;;;;;;5140551;27;20325;-61
2021/12/20 07:33:40;;;;;;;;;;;21.10;39.90;;;;;;5124028;27;19968;-60
2021/12/20 07:36:05;;;;;;;;;;;21.10;39.90;;;;;;5114775;27;19931;-60
2021/12/20 07:38:31;;;;;;;;;;;21.10;40.10;;;;;;5146609;27;20053;-62
2021/12/20 07:40:57;;;;;;;;;;;21.10;39.90;;;;;;5149530;27;20271;-63
2021/12/20 07:43:23;;;;;;;;;;;21.10;40.10;;;;;;5136691;27;19916;-63
2021/12/20 07:45:48;;;;;;;;;;;21.10;40.10;;;;;;5147144;27;19917;-64
2021/12/20 07:48:15;;;;;;;;;;;21.20;40.10;;;;;;5137512;27;20290;-62
2021/12/20 07:50:40;;;;;;;;;;;21.20;40.10;;;;;;5131974;27;19911;-61
2021/12/20 07:53:06;;;;;;;;;;;20.30;38.80;;;;;;5114401;28;19918;-63
2021/12/20 07:55:32;;;;;;;;;;;20.30;39.40;;;;;;5132312;27;19914;-62
2021/12/20 07:57:58;;;;;;;;;;;20.60;39.60;;;;;;5152701;27;19915;-62
2021/12/20 08:00:23;;;;;;;;;;;20.90;39.80;;;;;;5151862;27;20001;-61
2021/12/20 08:02:49;;;;;;;;;;;21.00;39.60;;;;;;5135069;27;19919;-61
2021/12/20 08:05:15;;;;;;;;;;;21.10;39.60;;;;;;5136185;27;19907;-62
2021/12/20 08:07:41;;;;;;;;;;;21.10;39.70;;;;;;5152686;27;19923;-62
2021/12/20 08:10:07;;;;;;;;;;;21.10;39.80;;;;;;5150071;27;19911;-61
2021/12/20 08:12:33;;;;;;;;;;;21.10;39.90;;;;;;5137633;27;19908;-62
2021/12/20 08:14:58;;;;;;;;;;;21.10;40.00;;;;;;5136090;27;19956;-61
2021/12/20 08:17:24;;;;;;;;;;;21.20;40.00;;;;;;5153986;27;19907;-61
2021/12/20 08:19:49;;;;;;;;;;;21.20;40.00;;;;;;5139744;27;19916;-61
2021/12/20 08:22:15;;;;;;;;;;;21.20;40.00;;;;;;5135891;27;20017;-60
2021/12/20 08:24:40;;;;;;;;;;;20.90;37.60;;;;;;5135023;27;19927;-61
2021/12/20 08:27:06;;;;;;;;;;;20.30;39.50;;;;;;5136572;27;19919;-60
2021/12/20 08:29:31;;;;;;;;;;;20.50;39.80;;;;;;5143784;27;19907;-61
2021/12/20 08:32:01;;;;;;;;;;;20.80;40.30;;;;;;5155546;27;19917;-59
2021/12/20 08:34:27;;;;;;;;;;;21.10;39.90;;;;;;5147345;27;19956;-59
2021/12/20 08:36:53;;;;;;;;;;;21.10;39.90;;;;;;5148439;27;19978;-59
2021/12/20 08:39:19;;;;;;;;;;;21.10;39.90;;;;;;5116750;27;20505;-59
2021/12/20 08:41:45;;;;;;;;;;;21.30;40.00;;;;;;5145084;27;20479;-58
2021/12/20 08:44:11;;;;;;;;;;;21.20;40.00;;;;;;5143044;27;19911;-59
2021/12/20 08:46:36;;;;;;;;;;;21.20;40.00;;;;;;5148511;27;19914;-59
2021/12/20 08:49:02;;;;;;;;;;;21.30;40.30;;;;;;5117082;27;20026;-60
2021/12/20 08:51:27;;;;;;;;;;;21.30;40.10;;;;;;5145958;27;19918;-61
2021/12/20 08:53:53;;;;;;;;;;;21.20;40.10;;;;;;5154777;27;19956;-60
2021/12/20 08:56:18;;;;;;;;;;;21.40;40.30;;;;;;5149082;27;19946;-61
2021/12/20 08:58:45;;;;;;;;;;;21.30;40.20;;;;;;5118705;27;20433;-61
2021/12/20 09:01:10;;;;;;;;;;;21.30;40.20;;;;;;5140629;27;19919;-61
2021/12/20 09:03:36;;;;;;;;;;;21.30;40.20;;;;;;5145931;27;19916;-62
2021/12/20 09:06:01;;;;;;;;;;;21.40;40.30;;;;;;5140985;27;19963;-61
2021/12/20 09:08:28;;;;;;;;;;;21.40;40.30;;;;;;5156119;27;19953;-60
2021/12/20 09:10:54;;;;;;;;;;;21.40;40.30;;;;;;5144723;27;19911;-60
2021/12/20 09:13:19;;;;;;;;;;;21.40;40.30;;;;;;5154268;27;20292;-60
2021/12/20 09:15:45;;;;;;;;;;;21.40;40.30;;;;;;5150530;27;20286;-59
2021/12/20 09:18:11;;;;;;;;;;;21.50;40.60;;;;;;5135208;27;19957;-60
2021/12/20 09:20:37;;;;;;;;;;;21.50;40.60;;;;;;5135697;27;19926;-60
2021/12/20 09:23:05;;;;;;;;;;;21.50;40.60;;;;;;5150428;27;19911;-60
2021/12/20 09:25:32;;;;;;;;;;;21.50;40.60;;;;;;5152999;27;19952;-59
2021/12/20 09:27:58;;;;;;;;;;;21.50;40.60;;;;;;5152646;27;19915;-60
2021/12/20 09:30:24;;;;;;;;;;;21.50;40.50;;;;;;5154132;27;19911;-60
2021/12/20 09:32:50;;;;;;;;;;;21.50;40.40;;;;;;5151966;27;19926;-61
2021/12/20 09:35:16;;;;;;;;;;;21.50;40.40;;;;;;5154905;27;20101;-60
2021/12/20 09:37:41;;;;;;;;;;;21.50;40.40;;;;;;5139990;27;19915;-60
2021/12/20 09:40:08;;;;;;;;;;;21.50;40.50;;;;;;5152721;27;19972;-59
2021/12/20 09:42:34;;;;;;;;;;;21.50;40.50;;;;;;5137959;27;20286;-60
2021/12/20 09:45:00;;;;;;;;;;;21.50;40.60;;;;;;5152261;27;19907;-61
2021/12/20 09:47:31;;;;;;;;;;;21.50;40.60;;;;;;5149625;27;19954;-59
2021/12/20 09:49:56;;;;;;;;;;;21.50;40.50;;;;;;5137832;27;20434;-59
2021/12/20 09:52:22;;;;;;;;;;;21.50;40.40;;;;;;5137589;27;19912;-59
2021/12/20 09:54:47;;;;;;;;;;;21.60;40.50;;;;;;5133440;27;19912;-60
2021/12/20 09:57:16;;;;;;;;;;;21.60;40.60;;;;;;5138973;27;20314;-59
2021/12/20 09:59:42;;;;;;;;;;;21.60;40.50;;;;;;5134097;27;19927;-60
2021/12/20 10:02:09;;;;;;;;;;;21.60;40.50;;;;;;5136382;27;20448;-61
2021/12/20 10:04:34;;;;;;;;;;;21.60;40.60;;;;;;5133067;27;19915;-60
2021/12/20 10:07:01;;;;;;;;;;;21.60;40.80;;;;;;5132450;27;19912;-59
2021/12/20 10:09:31;;;;;;;;;;;21.60;40.50;;;;;;5131576;27;19908;-60
2021/12/20 10:12:15;;;;;;;;;;;21.60;40.30;;;;;;5142991;27;20354;-59
2021/12/20 10:14:50;;;;;;;;;;;21.60;40.20;;;;;;5153949;27;19911;-61
2021/12/20 10:17:15;;;;;;;;;;;21.60;40.40;;;;;;5152101;27;19919;-63
2021/12/20 10:19:41;;;;;;;;;;;21.70;40.70;;;;;;5136786;27;19927;-62
2021/12/20 10:22:23;;;;;;;;;;;21.70;40.60;;;;;;5143586;27;20259;-61
2021/12/20 10:24:48;;;;;;;;;;;21.80;40.60;;;;;;5132268;27;19918;-61
2021/12/20 10:27:33;;;;;;;;;;;21.70;40.70;;;;;;5133469;27;19915;-62
2021/12/20 10:30:00;;;;;;;;;;;21.60;40.70;;;;;;5132897;27;20003;-61
2021/12/20 10:32:44;;;;;;;;;;;21.60;40.90;;;;;;5149663;27;19911;-61
2021/12/20 10:35:27;;;;;;;;;;;21.60;40.80;;;;;;5152229;27;19911;-61
2021/12/20 10:37:57;;;;;;;;;;;21.70;40.60;;;;;;5131392;27;19915;-60
2021/12/20 10:40:22;;;;;;;;;;;21.70;40.60;;;;;;5132417;27;20251;-61
2021/12/20 10:42:49;;;;;;;;;;;21.70;40.70;;;;;;5131415;27;19911;-61
2021/12/20 10:45:17;;;;;;;;;;;21.70;40.50;;;;;;5131515;27;19927;-61
2021/12/20 10:47:43;;;;;;;;;;;21.70;40.50;;;;;;5132053;27;19912;-60
2021/12/20 10:50:23;;;;;;;;;;;21.70;40.50;;;;;;5133170;27;19949;-61
2021/12/20 10:52:49;;;;;;;;;;;21.70;40.50;;;;;;5135557;27;19915;-60
2021/12/20 10:55:33;;;;;;;;;;;21.70;40.50;;;;;;5135462;27;20026;-61
2021/12/20 10:58:15;;;;;;;;;;;21.70;40.50;;;;;;5147010;27;19915;-61
2021/12/20 11:00:40;;;;;;;;;;;21.80;40.60;;;;;;5145938;27;20374;-61
2021/12/20 11:03:20;;;;;;;;;;;21.70;40.60;;;;;;5144328;27;19923;-60
2021/12/20 11:06:03;;;;;;;;;;;21.30;39.60;;;;;;5135440;27;20356;-60
2021/12/20 11:11:13;;;;;;;;;;;21.70;40.50;;;;;;5142921;27;20065;-61
2021/12/20 11:13:39;;;;;;;;;;;21.80;40.10;;;;;;5134592;27;20660;-60
2021/12/20 11:16:24;;;;;;;;;;;21.80;40.30;;;;;;5141732;27;19954;-60
2021/12/20 11:19:08;;;;;;;;;;;21.80;40.30;;;;;;5131858;27;19917;-61
2021/12/20 11:21:38;;;;;;;;;;;21.70;40.20;;;;;;5116475;27;19920;-60
2021/12/20 11:24:10;;;;;;;;;;;21.80;40.40;;;;;;5129455;27;19923;-61
2021/12/20 11:26:35;;;;;;;;;;;21.80;40.50;;;;;;5139320;27;19915;-61
2021/12/20 11:29:01;;;;;;;;;;;21.80;40.40;;;;;;5129616;27;19999;-60
2021/12/20 11:31:26;;;;;;;;;;;21.80;40.40;;;;;;5136486;27;19960;-59
2021/12/20 11:33:52;;;;;;;;;;;21.80;40.30;;;;;;5129666;27;19911;-60
2021/12/20 11:36:18;;;;;;;;;;;21.80;40.30;;;;;;5136133;27;19915;-60
2021/12/20 11:38:43;;;;;;;;;;;21.80;40.30;;;;;;5148395;27;19907;-62
2021/12/20 11:41:09;;;;;;;;;;;21.80;40.30;;;;;;5142075;27;19919;-63
2021/12/20 11:43:35;;;;;;;;;;;21.80;40.30;;;;;;5141288;27;19911;-62
2021/12/20 11:46:01;;;;;;;;;;;21.80;40.30;;;;;;5141305;27;19919;-61
2021/12/20 11:48:28;;;;;;;;;;;21.80;40.10;;;;;;5130954;27;19968;-62
2021/12/20 11:50:58;;;;;;;;;;;21.80;40.10;;;;;;5131577;27;19922;-61
2021/12/20 11:53:23;;;;;;;;;;;21.80;39.90;;;;;;5133323;27;19919;-62
2021/12/20 11:55:50;;;;;;;;;;;21.90;40.10;;;;;;5149553;27;19918;-61
2021/12/20 11:58:16;;;;;;;;;;;21.80;39.90;;;;;;5147148;27;19915;-62
2021/12/20 12:00:46;;;;;;;;;;;21.80;40.20;;;;;;5142933;27;19983;-62
2021/12/20 12:03:15;;;;;;;;;;;21.80;39.70;;;;;;5143700;27;19911;-60
2021/12/20 12:05:46;;;;;;;;;;;21.80;39.70;;;;;;5130851;27;19959;-60
2021/12/20 12:08:23;;;;;;;;;;;21.80;39.90;;;;;;5144534;27;20442;-61
2021/12/20 12:10:49;;;;;;;;;;;21.90;40.30;;;;;;5147521;27;19962;-61
2021/12/20 12:13:16;;;;;;;;;;;21.90;40.20;;;;;;5130836;27;19987;-60
2021/12/20 12:15:53;;;;;;;;;;;21.90;39.90;;;;;;5128784;27;20007;-61
2021/12/20 12:18:18;;;;;;;;;;;21.90;40.10;;;;;;5130801;27;19912;-63
2021/12/20 12:20:49;;;;;;;;;;;21.90;39.90;;;;;;5140996;27;20276;-61
2021/12/20 12:23:19;;;;;;;;;;;21.90;40.10;;;;;;5142350;27;20607;-63
2021/12/20 12:25:50;;;;;;;;;;;21.90;40.10;;;;;;5137138;27;20544;-63
2021/12/20 12:28:17;;;;;;;;;;;21.80;40.00;;;;;;5113820;28;20351;-62
2021/12/20 12:30:44;;;;;;;;;;;21.80;39.80;;;;;;5137737;27;19915;-64
2021/12/20 12:33:13;;;;;;;;;;;21.80;39.90;;;;;;5132517;27;20457;-62
2021/12/20 12:35:42;;;;;;;;;;;21.80;40.10;;;;;;5135362;27;20362;-62
2021/12/20 12:38:12;;;;;;;;;;;21.90;40.10;;;;;;5130447;27;19950;-61
2021/12/20 12:40:37;;;;;;;;;;;21.90;40.10;;;;;;5130564;27;19918;-60
2021/12/20 12:43:03;;;;;;;;;;;21.90;40.00;;;;;;5148121;27;19907;-60
2021/12/20 12:45:47;;;;;;;;;;;21.80;39.90;;;;;;5145061;27;19912;-60
2021/12/20 12:48:31;;;;;;;;;;;21.80;40.00;;;;;;5134270;27;19908;-60
2021/12/20 12:50:56;;;;;;;;;;;21.80;40.00;;;;;;5134629;27;20035;-60
2021/12/20 12:53:38;;;;;;;;;;;21.80;39.70;;;;;;5141502;27;20014;-61
2021/12/20 12:56:22;;;;;;;;;;;21.80;39.70;;;;;;5149209;27;19911;-63
2021/12/20 12:59:07;;;;;;;;;;;21.70;39.80;;;;;;5149872;27;19908;-63
2021/12/20 13:01:33;;;;;;;;;;;21.80;39.70;;;;;;5151002;27;19923;-62
2021/12/20 13:03:58;;;;;;;;;;;21.80;39.80;;;;;;5148327;27;19963;-62
2021/12/20 13:06:25;;;;;;;;;;;21.80;39.80;;;;;;5150891;27;19955;-62
2021/12/20 13:08:53;;;;;;;;;;;21.80;39.60;;;;;;5143612;27;19996;-62
2021/12/20 13:11:20;;;;;;;;;;;21.90;39.70;;;;;;5135437;27;19915;-62
2021/12/20 13:13:53;;;;;;;;;;;21.80;39.60;;;;;;5151745;27;20576;-62
2021/12/20 13:16:24;;;;;;;;;;;21.80;39.60;;;;;;5141155;27;19947;-62
2021/12/20 13:18:51;;;;;;;;;;;21.70;39.60;;;;;;5129510;27;19911;-63
2021/12/20 13:21:21;;;;;;;;;;;21.80;39.80;;;;;;5142781;27;20428;-62
2021/12/20 13:23:48;;;;;;;;;;;21.80;39.60;;;;;;5138357;27;19918;-61
2021/12/20 13:26:17;;;;;;;;;;;21.80;39.60;;;;;;5147791;27;20397;-60
2021/12/20 13:28:44;;;;;;;;;;;21.80;39.20;;;;;;5135826;27;19969;-60
2021/12/20 13:31:11;;;;;;;;;;;21.80;39.40;;;;;;5148089;27;19934;-62
2021/12/20 13:33:45;;;;;;;;;;;21.80;39.40;;;;;;5135225;27;19981;-62
2021/12/20 13:36:12;;;;;;;;;;;21.80;39.10;;;;;;5144244;27;19912;-62
2021/12/20 13:38:39;;;;;;;;;;;21.80;39.40;;;;;;5135061;27;19915;-61
2021/12/20 13:41:09;;;;;;;;;;;21.80;39.30;;;;;;5141470;27;20322;-61
2021/12/20 13:43:37;;;;;;;;;;;21.80;39.00;;;;;;5116237;27;19912;-61
2021/12/20 13:48:59;;;;;;;;;;;21.80;39.10;;;;;;5137697;27;19946;-60
2021/12/20 13:51:36;;;;;;;;;;;21.80;39.20;;;;;;5136007;27;19915;-61
2021/12/20 13:54:19;;;;;;;;;;;21.80;39.30;;;;;;5136753;27;19911;-61
2021/12/20 13:56:49;;;;;;;;;;;21.90;39.10;;;;;;5141029;27;19911;-61
2021/12/20 13:59:15;;;;;;;;;;;21.80;39.10;;;;;;5139255;27;19918;-60
2021/12/20 14:01:40;;;;;;;;;;;21.80;39.40;;;;;;5137406;27;19927;-60
2021/12/20 14:04:06;;;;;;;;;;;21.80;39.00;;;;;;5137176;27;19937;-60
2021/12/20 14:06:41;;;;;;;;;;;21.70;39.20;;;;;;5138142;27;19911;-60
2021/12/20 14:09:10;;;;;;;;;;;21.70;39.50;;;;;;5138804;27;19912;-59
2021/12/20 14:11:35;;;;;;;;;;;21.70;39.10;;;;;;5150384;27;19938;-60
2021/12/20 14:14:07;;;;;;;;;;;21.70;39.00;;;;;;5153869;27;20262;-60
2021/12/20 14:16:52;;;;;;;;;;;21.80;39.10;;;;;;5148688;27;20262;-60
2021/12/20 14:19:17;;;;;;;;;;;21.70;38.70;;;;;;5153171;27;19990;-61
2021/12/20 14:21:43;;;;;;;;;;;21.80;38.90;;;;;;5148426;27;20374;-64
2021/12/20 14:24:08;;;;;;;;;;;21.80;39.00;;;;;;5133412;27;20386;-60
2021/12/20 14:26:37;;;;;;;;;;;21.70;38.90;;;;;;5143806;27;19911;-62
2021/12/20 14:29:07;;;;;;;;;;;21.70;38.50;;;;;;5137845;27;19912;-60
2021/12/20 14:31:36;;;;;;;;;;;21.70;38.90;;;;;;5145300;27;20346;-59
2021/12/20 14:34:03;;;;;;;;;;;21.70;38.70;;;;;;5147330;27;19911;-60